sensor_id;sensor_type;location;lat;lon;timestamp;P1;durP1;ratioP1;P2;durP2;ratioP2
57752;SDS011;43583;53.132;6.574;2023-06-24T00:01:49;7.15;;;3.85;;
57752;SDS011;43583;53.132;6.574;2023-06-24T00:04:15;6.05;;;4.47;;
57752;SDS011;43583;53.132;6.574;2023-06-24T00:06:44;5.80;;;4.65;;
57752;SDS011;43583;53.132;6.574;2023-06-24T00:09:09;5.63;;;4.30;;
57752;SDS011;43583;53.132;6.574;2023-06-24T00:11:35;6.60;;;4.22;;
57752;SDS011;43583;53.132;6.574;2023-06-24T00:14:01;6.38;;;4.63;;
57752;SDS011;43583;53.132;6.574;2023-06-24T00:16:26;5.70;;;4.35;;
57752;SDS011;43583;53.132;6.574;2023-06-24T00:18:55;5.65;;;4.10;;
57752;SDS011;43583;53.132;6.574;2023-06-24T00:21:25;7.07;;;4.60;;
57752;SDS011;43583;53.132;6.574;2023-06-24T00:23:57;7.30;;;4.20;;
57752;SDS011;43583;53.132;6.574;2023-06-24T00:26:24;9.10;;;4.75;;
57752;SDS011;43583;53.132;6.574;2023-06-24T00:28:50;5.65;;;5.05;;
57752;SDS011;43583;53.132;6.574;2023-06-24T00:31:16;6.43;;;4.20;;
57752;SDS011;43583;53.132;6.574;2023-06-24T00:33:42;8.20;;;5.07;;
57752;SDS011;43583;53.132;6.574;2023-06-24T00:36:07;5.97;;;5.30;;
57752;SDS011;43583;53.132;6.574;2023-06-24T00:38:36;7.10;;;4.70;;
57752;SDS011;43583;53.132;6.574;2023-06-24T00:41:03;6.80;;;4.35;;
57752;SDS011;43583;53.132;6.574;2023-06-24T00:43:29;8.20;;;4.95;;
57752;SDS011;43583;53.132;6.574;2023-06-24T00:45:55;9.32;;;5.22;;
57752;SDS011;43583;53.132;6.574;2023-06-24T00:48:21;9.63;;;5.25;;
57752;SDS011;43583;53.132;6.574;2023-06-24T00:50:48;8.38;;;5.53;;
57752;SDS011;43583;53.132;6.574;2023-06-24T00:53:14;8.02;;;5.30;;
57752;SDS011;43583;53.132;6.574;2023-06-24T00:55:40;6.35;;;4.68;;
57752;SDS011;43583;53.132;6.574;2023-06-24T00:58:06;5.65;;;4.13;;
57752;SDS011;43583;53.132;6.574;2023-06-24T01:00:32;7.25;;;5.70;;
57752;SDS011;43583;53.132;6.574;2023-06-24T01:02:59;6.85;;;4.30;;
57752;SDS011;43583;53.132;6.574;2023-06-24T01:05:25;5.68;;;4.68;;
57752;SDS011;43583;53.132;6.574;2023-06-24T01:07:53;6.53;;;4.90;;
57752;SDS011;43583;53.132;6.574;2023-06-24T01:10:20;5.38;;;4.82;;
57752;SDS011;43583;53.132;6.574;2023-06-24T01:12:48;8.00;;;5.28;;
57752;SDS011;43583;53.132;6.574;2023-06-24T01:15:14;6.47;;;5.18;;
57752;SDS011;43583;53.132;6.574;2023-06-24T01:20:27;5.90;;;4.20;;
57752;SDS011;43583;53.132;6.574;2023-06-24T01:34:00;7.65;;;4.82;;
57752;SDS011;43583;53.132;6.574;2023-06-24T01:36:57;10.98;;;6.32;;
57752;SDS011;43583;53.132;6.574;2023-06-24T01:39:24;8.00;;;4.93;;
57752;SDS011;43583;53.132;6.574;2023-06-24T01:41:56;6.60;;;5.30;;
57752;SDS011;43583;53.132;6.574;2023-06-24T01:44:25;9.68;;;5.22;;
57752;SDS011;43583;53.132;6.574;2023-06-24T01:46:53;6.32;;;4.88;;
57752;SDS011;43583;53.132;6.574;2023-06-24T01:49:22;9.32;;;5.60;;
57752;SDS011;43583;53.132;6.574;2023-06-24T01:51:52;6.00;;;4.63;;
57752;SDS011;43583;53.132;6.574;2023-06-24T01:54:21;6.55;;;5.05;;
57752;SDS011;43583;53.132;6.574;2023-06-24T01:56:49;8.35;;;5.15;;
57752;SDS011;43583;53.132;6.574;2023-06-24T01:59:17;9.45;;;5.85;;
57752;SDS011;43583;53.132;6.574;2023-06-24T02:01:45;8.45;;;5.43;;
57752;SDS011;43583;53.132;6.574;2023-06-24T02:04:11;5.05;;;3.85;;
57752;SDS011;43583;53.132;6.574;2023-06-24T02:06:40;8.73;;;4.53;;
57752;SDS011;43583;53.132;6.574;2023-06-24T02:09:07;9.32;;;5.45;;
57752;SDS011;43583;53.132;6.574;2023-06-24T02:11:34;6.53;;;4.85;;
57752;SDS011;43583;53.132;6.574;2023-06-24T02:14:01;8.77;;;5.18;;
57752;SDS011;43583;53.132;6.574;2023-06-24T02:16:29;5.78;;;4.10;;
57752;SDS011;43583;53.132;6.574;2023-06-24T02:18:57;11.82;;;5.07;;
57752;SDS011;43583;53.132;6.574;2023-06-24T02:21:23;7.15;;;5.28;;
57752;SDS011;43583;53.132;6.574;2023-06-24T02:23:51;9.15;;;5.72;;
57752;SDS011;43583;53.132;6.574;2023-06-24T02:26:18;9.18;;;5.63;;
57752;SDS011;43583;53.132;6.574;2023-06-24T02:28:44;8.55;;;5.93;;
57752;SDS011;43583;53.132;6.574;2023-06-24T02:31:11;9.88;;;5.75;;
57752;SDS011;43583;53.132;6.574;2023-06-24T02:33:38;8.63;;;5.82;;
57752;SDS011;43583;53.132;6.574;2023-06-24T02:36:04;9.23;;;5.88;;
57752;SDS011;43583;53.132;6.574;2023-06-24T02:38:31;9.35;;;5.72;;
57752;SDS011;43583;53.132;6.574;2023-06-24T02:40:56;8.02;;;5.82;;
57752;SDS011;43583;53.132;6.574;2023-06-24T02:43:23;9.80;;;6.30;;
57752;SDS011;43583;53.132;6.574;2023-06-24T02:45:49;9.75;;;6.80;;
57752;SDS011;43583;53.132;6.574;2023-06-24T02:48:15;7.78;;;5.47;;
57752;SDS011;43583;53.132;6.574;2023-06-24T02:50:42;10.88;;;6.18;;
57752;SDS011;43583;53.132;6.574;2023-06-24T02:53:12;11.90;;;8.05;;
57752;SDS011;43583;53.132;6.574;2023-06-24T02:55:40;9.98;;;7.75;;
57752;SDS011;43583;53.132;6.574;2023-06-24T02:58:07;10.73;;;6.75;;
57752;SDS011;43583;53.132;6.574;2023-06-24T03:00:36;10.55;;;7.18;;
57752;SDS011;43583;53.132;6.574;2023-06-24T03:03:04;11.48;;;7.43;;
57752;SDS011;43583;53.132;6.574;2023-06-24T03:05:30;11.75;;;6.75;;
57752;SDS011;43583;53.132;6.574;2023-06-24T03:07:58;9.27;;;6.40;;
57752;SDS011;43583;53.132;6.574;2023-06-24T03:10:24;13.15;;;7.90;;
57752;SDS011;43583;53.132;6.574;2023-06-24T03:12:50;13.27;;;7.50;;
57752;SDS011;43583;53.132;6.574;2023-06-24T03:15:17;12.25;;;6.68;;
57752;SDS011;43583;53.132;6.574;2023-06-24T03:17:42;9.32;;;6.07;;
57752;SDS011;43583;53.132;6.574;2023-06-24T03:20:08;12.90;;;7.13;;
57752;SDS011;43583;53.132;6.574;2023-06-24T03:22:34;10.93;;;6.85;;
57752;SDS011;43583;53.132;6.574;2023-06-24T03:25:00;10.70;;;6.38;;
57752;SDS011;43583;53.132;6.574;2023-06-24T03:27:25;12.00;;;7.32;;
57752;SDS011;43583;53.132;6.574;2023-06-24T03:29:51;11.82;;;7.38;;
57752;SDS011;43583;53.132;6.574;2023-06-24T03:32:16;13.25;;;7.57;;
57752;SDS011;43583;53.132;6.574;2023-06-24T03:34:42;10.52;;;7.15;;
57752;SDS011;43583;53.132;6.574;2023-06-24T03:37:08;11.43;;;7.88;;
57752;SDS011;43583;53.132;6.574;2023-06-24T03:39:33;10.15;;;6.55;;
57752;SDS011;43583;53.132;6.574;2023-06-24T03:41:59;12.63;;;7.35;;
57752;SDS011;43583;53.132;6.574;2023-06-24T03:44:24;9.15;;;6.53;;
57752;SDS011;43583;53.132;6.574;2023-06-24T03:46:50;12.68;;;6.78;;
57752;SDS011;43583;53.132;6.574;2023-06-24T03:49:16;12.80;;;8.20;;
57752;SDS011;43583;53.132;6.574;2023-06-24T03:51:42;10.13;;;6.55;;
57752;SDS011;43583;53.132;6.574;2023-06-24T03:54:09;12.15;;;6.85;;
57752;SDS011;43583;53.132;6.574;2023-06-24T03:56:34;10.80;;;6.55;;
57752;SDS011;43583;53.132;6.574;2023-06-24T03:59:00;10.15;;;6.53;;
57752;SDS011;43583;53.132;6.574;2023-06-24T04:01:25;10.07;;;5.68;;
57752;SDS011;43583;53.132;6.574;2023-06-24T04:03:51;10.07;;;6.85;;
57752;SDS011;43583;53.132;6.574;2023-06-24T04:06:16;9.27;;;6.25;;
57752;SDS011;43583;53.132;6.574;2023-06-24T04:08:42;8.73;;;5.75;;
57752;SDS011;43583;53.132;6.574;2023-06-24T04:11:13;5.15;;;4.50;;
57752;SDS011;43583;53.132;6.574;2023-06-24T04:13:39;8.25;;;5.07;;
57752;SDS011;43583;53.132;6.574;2023-06-24T04:16:05;6.72;;;4.50;;
57752;SDS011;43583;53.132;6.574;2023-06-24T04:18:30;10.85;;;5.95;;
57752;SDS011;43583;53.132;6.574;2023-06-24T04:20:56;8.43;;;5.43;;
57752;SDS011;43583;53.132;6.574;2023-06-24T04:23:22;6.53;;;5.38;;
57752;SDS011;43583;53.132;6.574;2023-06-24T04:25:47;8.05;;;5.57;;
57752;SDS011;43583;53.132;6.574;2023-06-24T04:28:13;4.88;;;4.15;;
57752;SDS011;43583;53.132;6.574;2023-06-24T04:30:38;8.18;;;5.07;;
57752;SDS011;43583;53.132;6.574;2023-06-24T04:33:04;6.40;;;4.25;;
57752;SDS011;43583;53.132;6.574;2023-06-24T04:35:30;5.25;;;4.55;;
57752;SDS011;43583;53.132;6.574;2023-06-24T04:37:56;5.68;;;4.22;;
57752;SDS011;43583;53.132;6.574;2023-06-24T04:40:21;5.32;;;4.43;;
57752;SDS011;43583;53.132;6.574;2023-06-24T04:42:47;5.15;;;4.03;;
57752;SDS011;43583;53.132;6.574;2023-06-24T04:45:13;5.47;;;4.30;;
57752;SDS011;43583;53.132;6.574;2023-06-24T04:47:38;6.60;;;4.43;;
57752;SDS011;43583;53.132;6.574;2023-06-24T04:50:04;5.20;;;4.18;;
57752;SDS011;43583;53.132;6.574;2023-06-24T04:52:30;4.85;;;3.88;;
57752;SDS011;43583;53.132;6.574;2023-06-24T04:54:56;6.53;;;3.97;;
57752;SDS011;43583;53.132;6.574;2023-06-24T04:57:28;6.97;;;4.47;;
57752;SDS011;43583;53.132;6.574;2023-06-24T04:59:56;6.80;;;4.70;;
57752;SDS011;43583;53.132;6.574;2023-06-24T05:02:23;5.45;;;4.20;;
57752;SDS011;43583;53.132;6.574;2023-06-24T05:04:49;4.38;;;3.92;;
57752;SDS011;43583;53.132;6.574;2023-06-24T05:07:15;4.22;;;3.83;;
57752;SDS011;43583;53.132;6.574;2023-06-24T05:09:40;4.10;;;3.33;;
57752;SDS011;43583;53.132;6.574;2023-06-24T05:12:06;3.97;;;3.38;;
57752;SDS011;43583;53.132;6.574;2023-06-24T05:14:36;4.68;;;3.28;;
57752;SDS011;43583;53.132;6.574;2023-06-24T05:17:02;4.07;;;3.67;;
57752;SDS011;43583;53.132;6.574;2023-06-24T05:19:29;4.35;;;3.95;;
57752;SDS011;43583;53.132;6.574;2023-06-24T05:21:54;4.57;;;4.00;;
57752;SDS011;43583;53.132;6.574;2023-06-24T05:24:20;4.72;;;4.00;;
57752;SDS011;43583;53.132;6.574;2023-06-24T05:26:48;4.65;;;4.00;;
57752;SDS011;43583;53.132;6.574;2023-06-24T05:29:15;4.25;;;3.63;;
57752;SDS011;43583;53.132;6.574;2023-06-24T05:31:41;4.78;;;4.03;;
57752;SDS011;43583;53.132;6.574;2023-06-24T05:34:07;3.85;;;3.55;;
57752;SDS011;43583;53.132;6.574;2023-06-24T05:36:33;5.93;;;4.35;;
57752;SDS011;43583;53.132;6.574;2023-06-24T05:38:59;3.75;;;3.35;;
57752;SDS011;43583;53.132;6.574;2023-06-24T05:41:24;6.07;;;3.45;;
57752;SDS011;43583;53.132;6.574;2023-06-24T05:44:00;4.85;;;3.65;;
57752;SDS011;43583;53.132;6.574;2023-06-24T05:46:29;4.68;;;4.00;;
57752;SDS011;43583;53.132;6.574;2023-06-24T05:48:55;3.92;;;3.53;;
57752;SDS011;43583;53.132;6.574;2023-06-24T05:51:21;5.38;;;3.72;;
57752;SDS011;43583;53.132;6.574;2023-06-24T05:53:46;5.25;;;3.85;;
57752;SDS011;43583;53.132;6.574;2023-06-24T05:56:12;6.22;;;3.70;;
57752;SDS011;43583;53.132;6.574;2023-06-24T05:58:37;3.67;;;3.38;;
57752;SDS011;43583;53.132;6.574;2023-06-24T06:01:03;3.70;;;3.40;;
57752;SDS011;43583;53.132;6.574;2023-06-24T06:03:29;3.28;;;2.97;;
57752;SDS011;43583;53.132;6.574;2023-06-24T06:05:55;3.53;;;3.22;;
57752;SDS011;43583;53.132;6.574;2023-06-24T06:08:21;3.78;;;3.42;;
57752;SDS011;43583;53.132;6.574;2023-06-24T06:10:47;5.40;;;3.85;;
57752;SDS011;43583;53.132;6.574;2023-06-24T06:13:12;5.28;;;3.72;;
57752;SDS011;43583;53.132;6.574;2023-06-24T06:15:38;4.80;;;3.10;;
57752;SDS011;43583;53.132;6.574;2023-06-24T06:18:03;4.18;;;3.78;;
57752;SDS011;43583;53.132;6.574;2023-06-24T06:20:29;3.30;;;3.00;;
57752;SDS011;43583;53.132;6.574;2023-06-24T06:22:54;4.90;;;3.58;;
57752;SDS011;43583;53.132;6.574;2023-06-24T06:25:20;3.55;;;3.25;;
57752;SDS011;43583;53.132;6.574;2023-06-24T06:27:45;4.35;;;3.53;;
57752;SDS011;43583;53.132;6.574;2023-06-24T06:30:11;3.25;;;2.95;;
57752;SDS011;43583;53.132;6.574;2023-06-24T06:32:37;2.70;;;2.50;;
57752;SDS011;43583;53.132;6.574;2023-06-24T06:35:03;3.67;;;2.63;;
57752;SDS011;43583;53.132;6.574;2023-06-24T06:37:29;5.00;;;3.10;;
57752;SDS011;43583;53.132;6.574;2023-06-24T06:39:54;6.07;;;3.53;;
57752;SDS011;43583;53.132;6.574;2023-06-24T06:42:20;5.78;;;3.30;;
57752;SDS011;43583;53.132;6.574;2023-06-24T06:44:45;3.55;;;3.25;;
57752;SDS011;43583;53.132;6.574;2023-06-24T06:47:11;3.88;;;3.47;;
57752;SDS011;43583;53.132;6.574;2023-06-24T06:49:37;4.35;;;3.35;;
57752;SDS011;43583;53.132;6.574;2023-06-24T06:52:02;3.45;;;3.13;;
57752;SDS011;43583;53.132;6.574;2023-06-24T06:54:28;4.10;;;3.70;;
57752;SDS011;43583;53.132;6.574;2023-06-24T06:56:54;4.43;;;3.47;;
57752;SDS011;43583;53.132;6.574;2023-06-24T06:59:20;5.43;;;3.92;;
57752;SDS011;43583;53.132;6.574;2023-06-24T07:01:46;3.85;;;3.42;;
57752;SDS011;43583;53.132;6.574;2023-06-24T07:04:11;4.25;;;3.90;;
57752;SDS011;43583;53.132;6.574;2023-06-24T07:06:37;5.22;;;4.10;;
57752;SDS011;43583;53.132;6.574;2023-06-24T07:09:02;4.35;;;3.38;;
57752;SDS011;43583;53.132;6.574;2023-06-24T07:11:28;4.28;;;3.75;;
57752;SDS011;43583;53.132;6.574;2023-06-24T07:13:54;11.02;;;6.50;;
57752;SDS011;43583;53.132;6.574;2023-06-24T07:16:19;4.68;;;4.20;;
57752;SDS011;43583;53.132;6.574;2023-06-24T07:18:45;3.72;;;3.42;;
57752;SDS011;43583;53.132;6.574;2023-06-24T07:21:10;4.07;;;3.38;;
57752;SDS011;43583;53.132;6.574;2023-06-24T07:23:36;8.50;;;4.78;;
57752;SDS011;43583;53.132;6.574;2023-06-24T07:26:01;4.68;;;4.00;;
57752;SDS011;43583;53.132;6.574;2023-06-24T07:28:27;6.35;;;3.58;;
57752;SDS011;43583;53.132;6.574;2023-06-24T07:30:53;5.13;;;3.40;;
57752;SDS011;43583;53.132;6.574;2023-06-24T07:33:19;5.80;;;4.55;;
57752;SDS011;43583;53.132;6.574;2023-06-24T07:35:44;5.28;;;4.65;;
57752;SDS011;43583;53.132;6.574;2023-06-24T07:38:10;5.65;;;4.10;;
57752;SDS011;43583;53.132;6.574;2023-06-24T07:40:35;8.32;;;3.90;;
57752;SDS011;43583;53.132;6.574;2023-06-24T07:43:01;4.57;;;3.63;;
57752;SDS011;43583;53.132;6.574;2023-06-24T07:45:26;5.78;;;3.78;;
57752;SDS011;43583;53.132;6.574;2023-06-24T07:47:52;6.63;;;4.18;;
57752;SDS011;43583;53.132;6.574;2023-06-24T07:50:17;4.13;;;3.45;;
57752;SDS011;43583;53.132;6.574;2023-06-24T07:52:43;5.05;;;3.30;;
57752;SDS011;43583;53.132;6.574;2023-06-24T07:55:08;4.00;;;3.45;;
57752;SDS011;43583;53.132;6.574;2023-06-24T07:57:34;3.75;;;3.38;;
57752;SDS011;43583;53.132;6.574;2023-06-24T08:00:00;3.13;;;2.58;;
57752;SDS011;43583;53.132;6.574;2023-06-24T08:02:25;4.03;;;3.40;;
57752;SDS011;43583;53.132;6.574;2023-06-24T08:04:51;3.60;;;2.97;;
57752;SDS011;43583;53.132;6.574;2023-06-24T08:07:17;3.75;;;2.70;;
57752;SDS011;43583;53.132;6.574;2023-06-24T08:09:42;3.15;;;2.45;;
57752;SDS011;43583;53.132;6.574;2023-06-24T08:12:08;3.30;;;2.30;;
57752;SDS011;43583;53.132;6.574;2023-06-24T08:14:34;2.10;;;1.90;;
57752;SDS011;43583;53.132;6.574;2023-06-24T08:17:00;2.15;;;1.92;;
57752;SDS011;43583;53.132;6.574;2023-06-24T08:19:26;1.70;;;1.48;;
57752;SDS011;43583;53.132;6.574;2023-06-24T08:21:52;2.08;;;1.52;;
57752;SDS011;43583;53.132;6.574;2023-06-24T08:24:18;2.35;;;1.40;;
57752;SDS011;43583;53.132;6.574;2023-06-24T08:26:44;2.60;;;1.30;;
57752;SDS011;43583;53.132;6.574;2023-06-24T08:29:09;1.08;;;0.88;;
57752;SDS011;43583;53.132;6.574;2023-06-24T08:31:35;2.05;;;0.90;;
57752;SDS011;43583;53.132;6.574;2023-06-24T08:34:00;1.80;;;0.73;;
57752;SDS011;43583;53.132;6.574;2023-06-24T08:36:31;1.40;;;0.73;;
57752;SDS011;43583;53.132;6.574;2023-06-24T08:38:56;1.60;;;1.00;;
57752;SDS011;43583;53.132;6.574;2023-06-24T08:41:22;1.63;;;1.00;;
57752;SDS011;43583;53.132;6.574;2023-06-24T08:43:49;2.15;;;1.13;;
57752;SDS011;43583;53.132;6.574;2023-06-24T08:46:15;1.98;;;1.17;;
57752;SDS011;43583;53.132;6.574;2023-06-24T08:48:43;1.33;;;0.90;;
57752;SDS011;43583;53.132;6.574;2023-06-24T08:51:10;1.98;;;1.42;;
57752;SDS011;43583;53.132;6.574;2023-06-24T08:53:41;1.60;;;1.20;;
57752;SDS011;43583;53.132;6.574;2023-06-24T08:56:08;4.38;;;1.40;;
57752;SDS011;43583;53.132;6.574;2023-06-24T08:58:35;1.33;;;0.90;;
57752;SDS011;43583;53.132;6.574;2023-06-24T09:01:01;3.25;;;0.90;;
57752;SDS011;43583;53.132;6.574;2023-06-24T09:03:27;3.10;;;1.17;;
57752;SDS011;43583;53.132;6.574;2023-06-24T09:05:52;2.20;;;0.70;;
57752;SDS011;43583;53.132;6.574;2023-06-24T09:08:18;1.42;;;1.02;;
57752;SDS011;43583;53.132;6.574;2023-06-24T09:10:45;2.85;;;1.17;;
57752;SDS011;43583;53.132;6.574;2023-06-24T09:13:19;1.77;;;1.00;;
57752;SDS011;43583;53.132;6.574;2023-06-24T09:15:44;1.90;;;1.00;;
57752;SDS011;43583;53.132;6.574;2023-06-24T09:18:10;1.40;;;0.82;;
57752;SDS011;43583;53.132;6.574;2023-06-24T09:20:37;2.75;;;1.20;;
57752;SDS011;43583;53.132;6.574;2023-06-24T09:23:09;2.17;;;1.33;;
57752;SDS011;43583;53.132;6.574;2023-06-24T09:25:35;2.55;;;1.45;;
57752;SDS011;43583;53.132;6.574;2023-06-24T09:28:01;3.95;;;1.40;;
57752;SDS011;43583;53.132;6.574;2023-06-24T09:30:27;2.88;;;1.48;;
57752;SDS011;43583;53.132;6.574;2023-06-24T09:32:53;2.92;;;1.05;;
57752;SDS011;43583;53.132;6.574;2023-06-24T09:35:21;1.92;;;1.38;;
57752;SDS011;43583;53.132;6.574;2023-06-24T09:37:52;1.70;;;1.23;;
57752;SDS011;43583;53.132;6.574;2023-06-24T09:40:21;3.42;;;1.83;;
57752;SDS011;43583;53.132;6.574;2023-06-24T09:42:54;2.70;;;1.45;;
57752;SDS011;43583;53.132;6.574;2023-06-24T09:45:22;2.50;;;1.48;;
57752;SDS011;43583;53.132;6.574;2023-06-24T09:47:51;2.10;;;1.58;;
57752;SDS011;43583;53.132;6.574;2023-06-24T09:50:18;2.72;;;1.60;;
57752;SDS011;43583;53.132;6.574;2023-06-24T09:52:44;1.98;;;1.42;;
57752;SDS011;43583;53.132;6.574;2023-06-24T09:55:11;2.92;;;1.20;;
57752;SDS011;43583;53.132;6.574;2023-06-24T09:57:39;2.08;;;1.20;;
57752;SDS011;43583;53.132;6.574;2023-06-24T10:00:16;2.28;;;1.40;;
57752;SDS011;43583;53.132;6.574;2023-06-24T10:02:44;2.10;;;1.40;;
57752;SDS011;43583;53.132;6.574;2023-06-24T10:05:10;1.95;;;1.27;;
57752;SDS011;43583;53.132;6.574;2023-06-24T10:07:38;1.80;;;1.30;;
57752;SDS011;43583;53.132;6.574;2023-06-24T10:10:05;2.20;;;1.55;;
57752;SDS011;43583;53.132;6.574;2023-06-24T10:12:31;1.67;;;0.93;;
57752;SDS011;43583;53.132;6.574;2023-06-24T10:14:58;3.15;;;1.10;;
57752;SDS011;43583;53.132;6.574;2023-06-24T10:17:25;1.80;;;0.82;;
57752;SDS011;43583;53.132;6.574;2023-06-24T10:19:51;2.47;;;0.93;;
57752;SDS011;43583;53.132;6.574;2023-06-24T10:22:21;2.40;;;0.93;;
57752;SDS011;43583;53.132;6.574;2023-06-24T10:24:49;2.33;;;1.10;;
57752;SDS011;43583;53.132;6.574;2023-06-24T10:27:17;2.05;;;1.08;;
57752;SDS011;43583;53.132;6.574;2023-06-24T10:29:50;1.83;;;0.82;;
57752;SDS011;43583;53.132;6.574;2023-06-24T10:32:17;1.35;;;0.70;;
57752;SDS011;43583;53.132;6.574;2023-06-24T10:34:44;2.33;;;0.88;;
57752;SDS011;43583;53.132;6.574;2023-06-24T10:37:21;1.65;;;0.77;;
57752;SDS011;43583;53.132;6.574;2023-06-24T10:39:53;2.58;;;1.02;;
57752;SDS011;43583;53.132;6.574;2023-06-24T10:44:49;1.58;;;0.90;;
57752;SDS011;43583;53.132;6.574;2023-06-24T10:47:15;2.42;;;0.80;;
57752;SDS011;43583;53.132;6.574;2023-06-24T10:49:41;1.77;;;0.77;;
57752;SDS011;43583;53.132;6.574;2023-06-24T10:52:07;1.67;;;0.65;;
57752;SDS011;43583;53.132;6.574;2023-06-24T10:54:40;1.15;;;0.50;;
57752;SDS011;43583;53.132;6.574;2023-06-24T10:57:07;1.02;;;0.40;;
57752;SDS011;43583;53.132;6.574;2023-06-24T10:59:42;1.48;;;0.43;;
57752;SDS011;43583;53.132;6.574;2023-06-24T11:02:30;1.58;;;0.70;;
57752;SDS011;43583;53.132;6.574;2023-06-24T11:05:00;1.77;;;0.65;;
57752;SDS011;43583;53.132;6.574;2023-06-24T11:07:27;2.67;;;0.80;;
57752;SDS011;43583;53.132;6.574;2023-06-24T11:09:56;3.38;;;0.77;;
57752;SDS011;43583;53.132;6.574;2023-06-24T11:12:24;2.60;;;1.30;;
57752;SDS011;43583;53.132;6.574;2023-06-24T11:14:51;1.30;;;0.70;;
57752;SDS011;43583;53.132;6.574;2023-06-24T11:17:20;2.83;;;1.17;;
57752;SDS011;43583;53.132;6.574;2023-06-24T11:19:46;1.75;;;0.70;;
57752;SDS011;43583;53.132;6.574;2023-06-24T11:22:11;2.33;;;0.55;;
57752;SDS011;43583;53.132;6.574;2023-06-24T11:24:37;1.20;;;0.43;;
57752;SDS011;43583;53.132;6.574;2023-06-24T11:27:04;1.65;;;0.55;;
57752;SDS011;43583;53.132;6.574;2023-06-24T11:29:30;1.73;;;0.50;;
57752;SDS011;43583;53.132;6.574;2023-06-24T11:31:58;2.03;;;1.10;;
57752;SDS011;43583;53.132;6.574;2023-06-24T11:34:24;2.17;;;0.90;;
57752;SDS011;43583;53.132;6.574;2023-06-24T11:36:50;1.25;;;0.68;;
57752;SDS011;43583;53.132;6.574;2023-06-24T11:39:25;2.03;;;0.85;;
57752;SDS011;43583;53.132;6.574;2023-06-24T11:41:53;2.97;;;0.80;;
57752;SDS011;43583;53.132;6.574;2023-06-24T11:44:19;1.17;;;0.55;;
57752;SDS011;43583;53.132;6.574;2023-06-24T11:46:45;1.17;;;0.73;;
57752;SDS011;43583;53.132;6.574;2023-06-24T11:49:11;3.42;;;0.68;;
57752;SDS011;43583;53.132;6.574;2023-06-24T11:51:44;1.25;;;0.68;;
57752;SDS011;43583;53.132;6.574;2023-06-24T11:54:18;1.05;;;0.63;;
57752;SDS011;43583;53.132;6.574;2023-06-24T11:56:49;2.42;;;0.95;;
57752;SDS011;43583;53.132;6.574;2023-06-24T11:59:17;1.58;;;0.80;;
57752;SDS011;43583;53.132;6.574;2023-06-24T12:01:54;1.95;;;0.77;;
57752;SDS011;43583;53.132;6.574;2023-06-24T12:04:22;1.60;;;0.80;;
57752;SDS011;43583;53.132;6.574;2023-06-24T12:06:53;1.80;;;0.77;;
57752;SDS011;43583;53.132;6.574;2023-06-24T12:09:19;1.77;;;0.73;;
57752;SDS011;43583;53.132;6.574;2023-06-24T12:11:44;1.52;;;0.63;;
57752;SDS011;43583;53.132;6.574;2023-06-24T12:14:10;1.02;;;0.70;;
57752;SDS011;43583;53.132;6.574;2023-06-24T12:16:36;3.33;;;0.88;;
57752;SDS011;43583;53.132;6.574;2023-06-24T12:19:03;1.42;;;0.60;;
57752;SDS011;43583;53.132;6.574;2023-06-24T12:21:28;2.70;;;0.80;;
57752;SDS011;43583;53.132;6.574;2023-06-24T12:23:54;1.75;;;0.55;;
57752;SDS011;43583;53.132;6.574;2023-06-24T12:26:19;1.58;;;0.70;;
57752;SDS011;43583;53.132;6.574;2023-06-24T12:28:45;1.27;;;0.70;;
57752;SDS011;43583;53.132;6.574;2023-06-24T12:31:11;2.33;;;0.85;;
57752;SDS011;43583;53.132;6.574;2023-06-24T12:33:36;5.00;;;0.90;;
57752;SDS011;43583;53.132;6.574;2023-06-24T12:36:02;1.42;;;0.80;;
57752;SDS011;43583;53.132;6.574;2023-06-24T12:38:28;2.80;;;0.75;;
57752;SDS011;43583;53.132;6.574;2023-06-24T12:40:53;1.35;;;0.57;;
57752;SDS011;43583;53.132;6.574;2023-06-24T12:43:19;2.95;;;0.90;;
57752;SDS011;43583;53.132;6.574;2023-06-24T12:45:44;1.33;;;0.60;;
57752;SDS011;43583;53.132;6.574;2023-06-24T12:48:10;1.65;;;0.70;;
57752;SDS011;43583;53.132;6.574;2023-06-24T12:50:36;1.90;;;0.73;;
57752;SDS011;43583;53.132;6.574;2023-06-24T12:53:01;2.08;;;0.68;;
57752;SDS011;43583;53.132;6.574;2023-06-24T12:55:30;2.38;;;0.68;;
57752;SDS011;43583;53.132;6.574;2023-06-24T12:57:56;2.55;;;0.63;;
57752;SDS011;43583;53.132;6.574;2023-06-24T13:00:23;1.15;;;0.50;;
57752;SDS011;43583;53.132;6.574;2023-06-24T13:02:49;1.40;;;0.75;;
57752;SDS011;43583;53.132;6.574;2023-06-24T13:05:15;1.30;;;0.80;;
57752;SDS011;43583;53.132;6.574;2023-06-24T13:07:42;2.10;;;0.70;;
57752;SDS011;43583;53.132;6.574;2023-06-24T13:10:08;3.13;;;0.90;;
57752;SDS011;43583;53.132;6.574;2023-06-24T13:12:34;1.55;;;0.80;;
57752;SDS011;43583;53.132;6.574;2023-06-24T13:15:01;1.33;;;0.55;;
57752;SDS011;43583;53.132;6.574;2023-06-24T13:17:29;1.88;;;0.80;;
57752;SDS011;43583;53.132;6.574;2023-06-24T13:19:55;1.77;;;0.60;;
57752;SDS011;43583;53.132;6.574;2023-06-24T13:22:21;1.77;;;0.60;;
57752;SDS011;43583;53.132;6.574;2023-06-24T13:24:47;1.50;;;0.80;;
57752;SDS011;43583;53.132;6.574;2023-06-24T13:27:12;1.35;;;0.50;;
57752;SDS011;43583;53.132;6.574;2023-06-24T13:29:38;1.25;;;0.93;;
57752;SDS011;43583;53.132;6.574;2023-06-24T13:32:04;0.95;;;0.50;;
57752;SDS011;43583;53.132;6.574;2023-06-24T13:34:29;2.45;;;0.80;;
57752;SDS011;43583;53.132;6.574;2023-06-24T13:36:55;1.23;;;0.65;;
57752;SDS011;43583;53.132;6.574;2023-06-24T13:39:21;1.27;;;0.60;;
57752;SDS011;43583;53.132;6.574;2023-06-24T13:41:49;3.05;;;1.25;;
57752;SDS011;43583;53.132;6.574;2023-06-24T13:44:15;2.28;;;0.90;;
57752;SDS011;43583;53.132;6.574;2023-06-24T13:46:41;1.17;;;0.80;;
57752;SDS011;43583;53.132;6.574;2023-06-24T13:49:07;2.63;;;0.77;;
57752;SDS011;43583;53.132;6.574;2023-06-24T13:51:33;2.35;;;1.00;;
57752;SDS011;43583;53.132;6.574;2023-06-24T13:53:59;1.77;;;0.65;;
57752;SDS011;43583;53.132;6.574;2023-06-24T13:56:25;3.30;;;0.55;;
57752;SDS011;43583;53.132;6.574;2023-06-24T13:58:51;1.95;;;1.00;;
57752;SDS011;43583;53.132;6.574;2023-06-24T14:01:17;2.03;;;0.93;;
57752;SDS011;43583;53.132;6.574;2023-06-24T14:03:43;2.63;;;0.57;;
57752;SDS011;43583;53.132;6.574;2023-06-24T14:06:10;2.50;;;0.70;;
57752;SDS011;43583;53.132;6.574;2023-06-24T14:08:36;1.00;;;0.47;;
57752;SDS011;43583;53.132;6.574;2023-06-24T14:11:01;1.17;;;0.52;;
57752;SDS011;43583;53.132;6.574;2023-06-24T14:13:27;4.07;;;0.90;;
57752;SDS011;43583;53.132;6.574;2023-06-24T14:15:54;1.88;;;0.50;;
57752;SDS011;43583;53.132;6.574;2023-06-24T14:18:21;1.80;;;0.77;;
57752;SDS011;43583;53.132;6.574;2023-06-24T14:20:48;1.25;;;0.45;;
57752;SDS011;43583;53.132;6.574;2023-06-24T14:23:13;1.52;;;0.57;;
57752;SDS011;43583;53.132;6.574;2023-06-24T14:25:39;1.38;;;0.40;;
57752;SDS011;43583;53.132;6.574;2023-06-24T14:28:05;1.95;;;0.57;;
57752;SDS011;43583;53.132;6.574;2023-06-24T14:30:31;2.03;;;0.40;;
57752;SDS011;43583;53.132;6.574;2023-06-24T14:32:58;1.35;;;0.57;;
57752;SDS011;43583;53.132;6.574;2023-06-24T14:35:24;3.05;;;0.60;;
57752;SDS011;43583;53.132;6.574;2023-06-24T14:37:50;1.35;;;0.40;;
57752;SDS011;43583;53.132;6.574;2023-06-24T14:40:15;2.70;;;0.40;;
57752;SDS011;43583;53.132;6.574;2023-06-24T14:42:41;1.13;;;0.60;;
57752;SDS011;43583;53.132;6.574;2023-06-24T14:45:06;1.55;;;0.52;;
57752;SDS011;43583;53.132;6.574;2023-06-24T14:47:32;1.23;;;0.30;;
57752;SDS011;43583;53.132;6.574;2023-06-24T14:49:58;0.85;;;0.40;;
57752;SDS011;43583;53.132;6.574;2023-06-24T14:52:23;0.85;;;0.30;;
57752;SDS011;43583;53.132;6.574;2023-06-24T14:54:49;4.80;;;0.57;;
57752;SDS011;43583;53.132;6.574;2023-06-24T14:57:14;1.20;;;0.35;;
57752;SDS011;43583;53.132;6.574;2023-06-24T14:59:43;1.77;;;0.45;;